RYR1EU LEIB-EGNT
Flight info
| Callsign | RYR1EU |
|---|---|
| Flight time | 2h 25m |
| Altitude | 38000 |
| Route | EPAMA DCT MARTA DCT EBROX DCT UMURE N863 GIROM DCT GONUP DCT TUPAR UN861 ANG DCT AKIKI UN867 AVANT UM184 HEMEL/N0434F390 Q3 MOGLI/N0430F380 L613 MAMUL UY250 RIMTO |
| Aircraft | B738/M-SDE2E3FGHIRWXY/LB1 |
Departure
| Time | 2026-04-30 19:21 |
|---|---|
| Airport | Ibiza Airport (LEIB) |
Arrival
| Time | 2026-04-30 21:46 |
|---|---|
| Airport | Newcastle International Airport (EGNT) |
| Time | Latitude | Longitude | Altitude | Speed | Heading |
|---|---|---|---|---|---|
| 2026-04-30 19:18 | 38.87501 | 1.36951 | 7 ft | 22 kts | 239° |
| 2026-04-30 19:18 | 38.87368 | 1.36818 | 9 ft | 19 kts | 157° |
| 2026-04-30 19:18 | 38.87261 | 1.36812 | 8 ft | 18 kts | 242° |
| 2026-04-30 19:19 | 38.87192 | 1.36641 | 9 ft | 28 kts | 243° |
| 2026-04-30 19:19 | 38.87097 | 1.36395 | 7 ft | 31 kts | 243° |
| 2026-04-30 19:19 | 38.86901 | 1.35929 | 7 ft | 28 kts | 242° |
| 2026-04-30 19:20 | 38.86777 | 1.35847 | 6 ft | 23 kts | 156° |
| 2026-04-30 19:20 | 38.86740 | 1.36002 | 5 ft | 24 kts | 62° |
| 2026-04-30 19:20 | 38.87407 | 1.37613 | 265 ft | 163 kts | 64° |
| 2026-04-30 19:21 | 38.87967 | 1.39034 | 1026 ft | 191 kts | 64° |
| 2026-04-30 19:21 | 38.88762 | 1.42452 | 1702 ft | 207 kts | 79° |
| 2026-04-30 19:22 | 38.89348 | 1.46100 | 2095 ft | 215 kts | 76° |
| 2026-04-30 19:22 | 38.90396 | 1.51789 | 4629 ft | 223 kts | 74° |
| 2026-04-30 19:23 | 38.93144 | 1.56906 | 6144 ft | 271 kts | 39° |
| 2026-04-30 19:24 | 38.96069 | 1.60233 | 7618 ft | 287 kts | 39° |
| 2026-04-30 19:24 | 38.97574 | 1.61961 | 8412 ft | 293 kts | 39° |
| 2026-04-30 19:24 | 39.00859 | 1.65180 | 9937 ft | 301 kts | 15° |
| 2026-04-30 19:25 | 39.07098 | 1.66195 | 12249 ft | 307 kts | 2° |
| 2026-04-30 19:26 | 39.11332 | 1.65685 | 13462 ft | 319 kts | 334° |
| 2026-04-30 19:26 | 39.15657 | 1.63246 | 14131 ft | 352 kts | 332° |
| 2026-04-30 19:26 | 39.17913 | 1.61944 | 14799 ft | 356 kts | 333° |
| 2026-04-30 19:27 | 39.22452 | 1.59354 | 16214 ft | 362 kts | 333° |
| 2026-04-30 19:27 | 39.27123 | 1.56718 | 17548 ft | 370 kts | 334° |
| 2026-04-30 19:28 | 39.29498 | 1.55383 | 18220 ft | 374 kts | 334° |
| 2026-04-30 19:28 | 39.34322 | 1.52671 | 19407 ft | 381 kts | 334° |
| 2026-04-30 19:29 | 39.39224 | 1.49913 | 20558 ft | 387 kts | 333° |
| 2026-04-30 19:29 | 39.41704 | 1.48515 | 21128 ft | 391 kts | 333° |
| 2026-04-30 19:30 | 39.49272 | 1.44243 | 22766 ft | 400 kts | 333° |
| 2026-04-30 19:30 | 39.54424 | 1.41330 | 23791 ft | 407 kts | 333° |
| 2026-04-30 19:31 | 39.59611 | 1.38406 | 24710 ft | 411 kts | 335° |
| 2026-04-30 19:31 | 39.62413 | 1.37515 | 25094 ft | 420 kts | 351° |
| 2026-04-30 19:31 | 39.68277 | 1.36818 | 25945 ft | 426 kts | 352° |
| 2026-04-30 19:32 | 39.71248 | 1.36481 | 26332 ft | 429 kts | 351° |
| 2026-04-30 19:32 | 39.74239 | 1.36126 | 26725 ft | 432 kts | 351° |
| 2026-04-30 19:32 | 39.77248 | 1.35752 | 27122 ft | 434 kts | 351° |
| 2026-04-30 19:32 | 39.80270 | 1.35364 | 27516 ft | 437 kts | 351° |
| 2026-04-30 19:33 | 39.83305 | 1.34966 | 27875 ft | 440 kts | 351° |
| 2026-04-30 19:33 | 39.86370 | 1.34560 | 28230 ft | 443 kts | 351° |
| 2026-04-30 19:33 | 39.89405 | 1.34156 | 28586 ft | 445 kts | 350° |
| 2026-04-30 19:33 | 39.92494 | 1.33745 | 28942 ft | 448 kts | 350° |
| 2026-04-30 19:34 | 39.95603 | 1.33331 | 29290 ft | 450 kts | 350° |
| 2026-04-30 19:34 | 39.98725 | 1.32916 | 29632 ft | 453 kts | 350° |
| 2026-04-30 19:34 | 40.05024 | 1.32077 | 30239 ft | 459 kts | 350° |
| 2026-04-30 19:35 | 40.08208 | 1.31652 | 30479 ft | 461 kts | 350° |
| 2026-04-30 19:35 | 40.11410 | 1.31225 | 30771 ft | 463 kts | 350° |
| 2026-04-30 19:35 | 40.14620 | 1.30797 | 31050 ft | 464 kts | 350° |
| 2026-04-30 19:35 | 40.17837 | 1.30368 | 31311 ft | 466 kts | 350° |
| 2026-04-30 19:36 | 40.21069 | 1.29936 | 31618 ft | 466 kts | 350° |
| 2026-04-30 19:36 | 40.24292 | 1.29505 | 31988 ft | 465 kts | 350° |
| 2026-04-30 19:36 | 40.30703 | 1.28646 | 32790 ft | 461 kts | 350° |
| 2026-04-30 19:37 | 40.33852 | 1.28223 | 33098 ft | 461 kts | 350° |
| 2026-04-30 19:37 | 40.37051 | 1.27792 | 33394 ft | 462 kts | 350° |
| 2026-04-30 19:37 | 40.40249 | 1.27360 | 33740 ft | 461 kts | 350° |
| 2026-04-30 19:37 | 40.43438 | 1.26930 | 34093 ft | 459 kts | 350° |
| 2026-04-30 19:38 | 40.46617 | 1.26500 | 34380 ft | 459 kts | 350° |
| 2026-04-30 19:38 | 40.49792 | 1.26070 | 34699 ft | 457 kts | 350° |
| 2026-04-30 19:38 | 40.52955 | 1.25642 | 35015 ft | 455 kts | 350° |
| 2026-04-30 19:38 | 40.56108 | 1.25214 | 35277 ft | 455 kts | 350° |
| 2026-04-30 19:39 | 40.59263 | 1.24785 | 35494 ft | 456 kts | 350° |
| 2026-04-30 19:39 | 40.62377 | 1.24361 | 35738 ft | 455 kts | 350° |
| 2026-04-30 19:39 | 40.65527 | 1.23933 | 36009 ft | 454 kts | 350° |
| 2026-04-30 19:39 | 40.68676 | 1.23504 | 36270 ft | 454 kts | 350° |
| 2026-04-30 19:40 | 40.71817 | 1.23076 | 36500 ft | 454 kts | 350° |
| 2026-04-30 19:40 | 40.74958 | 1.22645 | 36734 ft | 453 kts | 350° |
| 2026-04-30 19:40 | 40.78093 | 1.22213 | 36978 ft | 453 kts | 350° |
| 2026-04-30 19:40 | 40.81222 | 1.21782 | 37213 ft | 452 kts | 350° |
| 2026-04-30 19:41 | 40.84355 | 1.21349 | 37440 ft | 452 kts | 350° |
| 2026-04-30 19:41 | 40.87480 | 1.20918 | 37651 ft | 452 kts | 350° |
| 2026-04-30 19:41 | 40.90613 | 1.20484 | 37886 ft | 451 kts | 350° |
| 2026-04-30 19:41 | 40.93690 | 1.20059 | 38165 ft | 449 kts | 350° |
| 2026-04-30 19:42 | 40.99955 | 1.19190 | 38133 ft | 453 kts | 350° |
| 2026-04-30 19:42 | 41.06206 | 1.18324 | 38126 ft | 449 kts | 350° |
| 2026-04-30 19:43 | 41.12394 | 1.17464 | 38129 ft | 445 kts | 350° |
| 2026-04-30 19:44 | 41.21630 | 1.16364 | 38126 ft | 443 kts | 352° |
| 2026-04-30 19:44 | 41.27753 | 1.15756 | 38131 ft | 441 kts | 352° |
| 2026-04-30 19:45 | 41.33862 | 1.15123 | 38117 ft | 440 kts | 352° |
| 2026-04-30 19:45 | 41.39930 | 1.14495 | 38130 ft | 440 kts | 352° |
| 2026-04-30 19:46 | 41.46094 | 1.13859 | 38129 ft | 442 kts | 352° |
| 2026-04-30 19:46 | 41.52200 | 1.13228 | 38132 ft | 444 kts | 352° |
| 2026-04-30 19:47 | 41.58379 | 1.12570 | 38135 ft | 446 kts | 351° |
| 2026-04-30 19:47 | 41.64591 | 1.11877 | 38113 ft | 448 kts | 351° |
| 2026-04-30 19:48 | 41.70816 | 1.11188 | 38116 ft | 450 kts | 351° |
| 2026-04-30 19:48 | 41.77066 | 1.10529 | 38114 ft | 451 kts | 352° |
| 2026-04-30 19:49 | 41.83321 | 1.09880 | 38098 ft | 450 kts | 351° |
| 2026-04-30 19:49 | 41.92679 | 1.08899 | 38081 ft | 448 kts | 351° |
| 2026-04-30 19:50 | 41.98880 | 1.08245 | 38089 ft | 446 kts | 351° |
| 2026-04-30 19:50 | 42.05002 | 1.07597 | 38088 ft | 444 kts | 351° |
| 2026-04-30 19:51 | 42.11143 | 1.06946 | 38103 ft | 442 kts | 351° |
| 2026-04-30 19:51 | 42.17258 | 1.06293 | 38116 ft | 440 kts | 351° |
| 2026-04-30 19:52 | 42.23354 | 1.05623 | 38157 ft | 438 kts | 351° |
| 2026-04-30 19:52 | 42.29432 | 1.04952 | 38162 ft | 437 kts | 351° |
| 2026-04-30 19:53 | 42.35497 | 1.04283 | 38167 ft | 437 kts | 351° |
| 2026-04-30 19:53 | 42.41554 | 1.03613 | 38184 ft | 437 kts | 350° |
| 2026-04-30 19:54 | 42.47617 | 1.02951 | 38180 ft | 437 kts | 350° |
| 2026-04-30 19:54 | 42.53654 | 1.02299 | 38182 ft | 438 kts | 350° |
| 2026-04-30 19:55 | 42.59734 | 1.01636 | 38151 ft | 440 kts | 350° |
| 2026-04-30 19:55 | 42.65830 | 1.00977 | 38181 ft | 439 kts | 350° |
| 2026-04-30 19:56 | 42.71921 | 1.00311 | 38182 ft | 438 kts | 350° |
| 2026-04-30 19:56 | 42.77869 | 0.99602 | 38175 ft | 435 kts | 346° |
| 2026-04-30 19:57 | 42.83667 | 0.97771 | 38171 ft | 428 kts | 340° |
| 2026-04-30 19:57 | 42.89421 | 0.95680 | 38169 ft | 427 kts | 340° |
| 2026-04-30 19:58 | 42.95180 | 0.93632 | 38176 ft | 428 kts | 340° |
| 2026-04-30 19:58 | 43.00943 | 0.91627 | 38169 ft | 428 kts | 341° |
| 2026-04-30 19:59 | 43.06731 | 0.89625 | 38170 ft | 429 kts | 341° |
| 2026-04-30 20:00 | 43.15440 | 0.86606 | 38158 ft | 431 kts | 341° |
| 2026-04-30 20:00 | 43.21267 | 0.84581 | 38166 ft | 432 kts | 341° |
| 2026-04-30 20:01 | 43.29991 | 0.81540 | 38151 ft | 434 kts | 341° |
| 2026-04-30 20:01 | 43.35844 | 0.79495 | 38154 ft | 434 kts | 341° |
| 2026-04-30 20:02 | 43.44617 | 0.76422 | 38169 ft | 434 kts | 341° |
| 2026-04-30 20:03 | 43.53234 | 0.72802 | 38151 ft | 430 kts | 336° |
| 2026-04-30 20:03 | 43.58902 | 0.70144 | 38153 ft | 430 kts | 336° |
| 2026-04-30 20:04 | 43.64568 | 0.67510 | 38171 ft | 430 kts | 337° |
| 2026-04-30 20:05 | 43.72131 | 0.64034 | 38155 ft | 429 kts | 337° |
| 2026-04-30 20:05 | 43.80631 | 0.60136 | 38149 ft | 429 kts | 337° |
| 2026-04-30 20:06 | 43.86294 | 0.57533 | 38158 ft | 428 kts | 337° |
| 2026-04-30 20:06 | 43.91954 | 0.54926 | 38151 ft | 428 kts | 337° |
| 2026-04-30 20:07 | 43.97579 | 0.52329 | 38158 ft | 428 kts | 337° |
| 2026-04-30 20:08 | 44.06063 | 0.48402 | 38158 ft | 428 kts | 338° |
| 2026-04-30 20:08 | 44.11719 | 0.45778 | 38164 ft | 428 kts | 338° |
| 2026-04-30 20:09 | 44.17381 | 0.43145 | 38158 ft | 429 kts | 338° |
| 2026-04-30 20:09 | 44.25862 | 0.39191 | 38163 ft | 431 kts | 338° |
| 2026-04-30 20:10 | 44.34407 | 0.35196 | 38147 ft | 432 kts | 338° |
| 2026-04-30 20:11 | 44.42962 | 0.31184 | 38162 ft | 433 kts | 338° |
| 2026-04-30 20:11 | 44.48677 | 0.28497 | 38151 ft | 433 kts | 338° |
| 2026-04-30 20:12 | 44.57266 | 0.24449 | 38160 ft | 433 kts | 338° |
| 2026-04-30 20:13 | 44.62983 | 0.21746 | 38157 ft | 433 kts | 339° |
| 2026-04-30 20:13 | 44.68656 | 0.19059 | 38154 ft | 433 kts | 339° |
| 2026-04-30 20:14 | 44.74373 | 0.16346 | 38152 ft | 433 kts | 339° |
| 2026-04-30 20:14 | 44.80090 | 0.13627 | 38156 ft | 433 kts | 339° |
| 2026-04-30 20:15 | 44.85792 | 0.10910 | 38150 ft | 433 kts | 339° |
| 2026-04-30 20:15 | 44.91497 | 0.08185 | 38152 ft | 433 kts | 338° |
| 2026-04-30 20:16 | 44.97196 | 0.05457 | 38156 ft | 432 kts | 338° |
| 2026-04-30 20:16 | 45.02883 | 0.02729 | 38161 ft | 432 kts | 339° |
| 2026-04-30 20:17 | 45.08576 | -0.00007 | 38172 ft | 433 kts | 339° |
| 2026-04-30 20:17 | 45.14179 | -0.02705 | 38165 ft | 433 kts | 339° |
| 2026-04-30 20:18 | 45.19883 | -0.05459 | 38165 ft | 433 kts | 339° |
| 2026-04-30 20:18 | 45.25546 | -0.08198 | 38167 ft | 433 kts | 339° |
| 2026-04-30 20:19 | 45.31251 | -0.10963 | 38168 ft | 433 kts | 339° |
| 2026-04-30 20:19 | 45.36963 | -0.13738 | 38165 ft | 434 kts | 339° |
| 2026-04-30 20:20 | 45.42684 | -0.16523 | 38158 ft | 435 kts | 339° |
| 2026-04-30 20:20 | 45.48410 | -0.19316 | 38163 ft | 435 kts | 339° |
| 2026-04-30 20:21 | 45.54151 | -0.22122 | 38164 ft | 436 kts | 339° |
| 2026-04-30 20:21 | 45.59898 | -0.24938 | 38165 ft | 437 kts | 340° |
| 2026-04-30 20:22 | 45.65625 | -0.27750 | 38154 ft | 438 kts | 340° |
| 2026-04-30 20:22 | 45.71406 | -0.30594 | 38166 ft | 439 kts | 340° |
| 2026-04-30 20:23 | 45.77191 | -0.33447 | 38157 ft | 440 kts | 340° |
| 2026-04-30 20:23 | 45.82979 | -0.36307 | 38159 ft | 440 kts | 340° |
| 2026-04-30 20:24 | 45.88769 | -0.39175 | 38155 ft | 440 kts | 340° |
| 2026-04-30 20:24 | 45.94564 | -0.42051 | 38162 ft | 440 kts | 340° |
| 2026-04-30 20:25 | 46.03235 | -0.46368 | 38158 ft | 440 kts | 340° |
| 2026-04-30 20:26 | 46.11865 | -0.50678 | 38154 ft | 439 kts | 340° |
| 2026-04-30 20:26 | 46.20524 | -0.55018 | 38146 ft | 439 kts | 340° |
| 2026-04-30 20:27 | 46.32041 | -0.60812 | 38155 ft | 438 kts | 340° |
| 2026-04-30 20:28 | 46.43590 | -0.66453 | 38137 ft | 438 kts | 348° |
| 2026-04-30 20:30 | 46.58765 | -0.68991 | 38150 ft | 440 kts | 353° |
| 2026-04-30 20:31 | 46.77013 | -0.72032 | 38151 ft | 442 kts | 353° |
| 2026-04-30 20:32 | 46.92300 | -0.74629 | 38149 ft | 443 kts | 352° |
| 2026-04-30 20:33 | 47.01493 | -0.76198 | 38150 ft | 443 kts | 353° |
| 2026-04-30 20:34 | 47.10654 | -0.77762 | 38138 ft | 443 kts | 353° |
| 2026-04-30 20:35 | 47.19843 | -0.79340 | 38129 ft | 443 kts | 353° |
| 2026-04-30 20:35 | 47.29034 | -0.80924 | 38141 ft | 443 kts | 353° |
| 2026-04-30 20:36 | 47.35163 | -0.81982 | 38141 ft | 444 kts | 353° |
| 2026-04-30 20:37 | 47.44376 | -0.83578 | 38141 ft | 444 kts | 353° |
| 2026-04-30 20:37 | 47.50480 | -0.84639 | 38125 ft | 445 kts | 353° |
| 2026-04-30 20:38 | 47.56613 | -0.85838 | 38133 ft | 444 kts | 350° |
| 2026-04-30 20:38 | 47.62702 | -0.87458 | 38126 ft | 444 kts | 349° |
| 2026-04-30 20:39 | 47.71838 | -0.89985 | 38130 ft | 444 kts | 349° |
| 2026-04-30 20:40 | 47.80934 | -0.92430 | 38135 ft | 445 kts | 349° |
| 2026-04-30 20:40 | 47.87033 | -0.94058 | 38132 ft | 445 kts | 349° |
| 2026-04-30 20:41 | 47.96192 | -0.96510 | 38132 ft | 445 kts | 349° |
| 2026-04-30 20:41 | 48.02251 | -0.98138 | 38128 ft | 446 kts | 349° |
| 2026-04-30 20:42 | 48.08367 | -0.99786 | 38142 ft | 446 kts | 349° |
| 2026-04-30 20:43 | 48.17419 | -1.02231 | 38131 ft | 447 kts | 349° |
| 2026-04-30 20:43 | 48.23553 | -1.03894 | 38140 ft | 448 kts | 349° |
| 2026-04-30 20:44 | 48.32771 | -1.06399 | 38146 ft | 449 kts | 349° |
| 2026-04-30 20:45 | 48.45051 | -1.09752 | 38140 ft | 450 kts | 349° |
| 2026-04-30 20:45 | 48.51223 | -1.11443 | 38142 ft | 451 kts | 349° |
| 2026-04-30 20:46 | 48.63589 | -1.14844 | 38134 ft | 452 kts | 349° |
| 2026-04-30 20:47 | 48.72869 | -1.17408 | 38138 ft | 452 kts | 349° |
| 2026-04-30 20:48 | 48.82165 | -1.19985 | 38129 ft | 452 kts | 349° |
| 2026-04-30 20:48 | 48.88355 | -1.21707 | 38140 ft | 452 kts | 349° |
| 2026-04-30 20:49 | 48.94515 | -1.23425 | 38121 ft | 452 kts | 349° |
| 2026-04-30 20:50 | 49.03801 | -1.26022 | 38133 ft | 452 kts | 349° |
| 2026-04-30 20:50 | 49.09987 | -1.27758 | 38116 ft | 452 kts | 349° |
| 2026-04-30 20:51 | 49.16167 | -1.29497 | 38129 ft | 451 kts | 349° |
| 2026-04-30 20:51 | 49.25430 | -1.32111 | 38113 ft | 451 kts | 349° |
| 2026-04-30 20:52 | 49.31574 | -1.33850 | 38130 ft | 451 kts | 349° |
| 2026-04-30 20:53 | 49.40853 | -1.36486 | 38132 ft | 451 kts | 349° |
| 2026-04-30 20:53 | 49.47035 | -1.38248 | 38132 ft | 452 kts | 349° |
| 2026-04-30 20:54 | 49.55262 | -1.40599 | 38123 ft | 452 kts | 349° |
| 2026-04-30 20:55 | 49.64643 | -1.41409 | 38142 ft | 452 kts | 4° |
| 2026-04-30 20:55 | 49.70929 | -1.40712 | 38136 ft | 453 kts | 4° |
| 2026-04-30 20:56 | 49.80378 | -1.39777 | 38126 ft | 454 kts | 4° |
| 2026-04-30 20:57 | 49.89826 | -1.38926 | 38123 ft | 455 kts | 4° |
| 2026-04-30 20:57 | 49.96157 | -1.38351 | 38117 ft | 455 kts | 4° |
| 2026-04-30 20:58 | 50.05606 | -1.36865 | 38118 ft | 456 kts | 10° |
| 2026-04-30 20:58 | 50.11857 | -1.35183 | 38120 ft | 456 kts | 11° |
| 2026-04-30 20:59 | 50.21210 | -1.32757 | 38112 ft | 456 kts | 10° |
| 2026-04-30 21:00 | 50.33740 | -1.29645 | 38135 ft | 455 kts | 10° |
| 2026-04-30 21:01 | 50.43130 | -1.27299 | 38135 ft | 455 kts | 10° |
| 2026-04-30 21:02 | 50.52260 | -1.23598 | 38148 ft | 451 kts | 28° |
| 2026-04-30 21:02 | 50.57573 | -1.18455 | 38146 ft | 449 kts | 35° |
| 2026-04-30 21:03 | 50.62810 | -1.13093 | 38148 ft | 449 kts | 34° |
| 2026-04-30 21:03 | 50.68072 | -1.07788 | 38164 ft | 449 kts | 34° |
| 2026-04-30 21:04 | 50.73345 | -1.02506 | 38152 ft | 449 kts | 34° |
| 2026-04-30 21:04 | 50.81243 | -0.94625 | 38157 ft | 450 kts | 31° |
| 2026-04-30 21:05 | 50.87069 | -0.90957 | 38171 ft | 452 kts | 19° |
| 2026-04-30 21:05 | 50.93080 | -0.87971 | 38177 ft | 452 kts | 19° |
| 2026-04-30 21:06 | 50.99088 | -0.84953 | 38176 ft | 453 kts | 19° |
| 2026-04-30 21:06 | 51.05073 | -0.81873 | 38182 ft | 453 kts | 20° |
| 2026-04-30 21:07 | 51.11059 | -0.78756 | 38187 ft | 453 kts | 20° |
| 2026-04-30 21:07 | 51.17042 | -0.75628 | 38184 ft | 453 kts | 20° |
| 2026-04-30 21:08 | 51.23027 | -0.72493 | 38189 ft | 452 kts | 20° |
| 2026-04-30 21:08 | 51.29009 | -0.69352 | 38180 ft | 452 kts | 20° |
| 2026-04-30 21:09 | 51.34988 | -0.66205 | 38198 ft | 452 kts | 20° |
| 2026-04-30 21:09 | 51.40927 | -0.63069 | 38208 ft | 452 kts | 20° |
| 2026-04-30 21:10 | 51.46903 | -0.59906 | 38218 ft | 452 kts | 20° |
| 2026-04-30 21:10 | 51.52885 | -0.56731 | 38208 ft | 453 kts | 20° |
| 2026-04-30 21:11 | 51.58871 | -0.53544 | 38212 ft | 453 kts | 20° |
| 2026-04-30 21:11 | 51.64855 | -0.50350 | 38210 ft | 453 kts | 20° |
| 2026-04-30 21:12 | 51.70843 | -0.47144 | 38252 ft | 453 kts | 20° |
| 2026-04-30 21:12 | 51.76830 | -0.43931 | 38211 ft | 454 kts | 20° |
| 2026-04-30 21:13 | 51.82880 | -0.41004 | 38211 ft | 454 kts | 13° |
| 2026-04-30 21:13 | 51.89061 | -0.39200 | 38212 ft | 455 kts | 10° |
| 2026-04-30 21:14 | 51.95301 | -0.37500 | 38211 ft | 454 kts | 11° |
| 2026-04-30 21:14 | 52.01522 | -0.35699 | 38212 ft | 454 kts | 11° |
| 2026-04-30 21:15 | 52.07740 | -0.33842 | 38203 ft | 454 kts | 12° |
| 2026-04-30 21:15 | 52.13953 | -0.31975 | 38214 ft | 454 kts | 12° |
| 2026-04-30 21:16 | 52.20172 | -0.30105 | 38215 ft | 454 kts | 11° |
| 2026-04-30 21:16 | 52.26391 | -0.28245 | 38216 ft | 455 kts | 9° |
| 2026-04-30 21:17 | 52.29554 | -0.27999 | 38213 ft | 455 kts | 355° |
| 2026-04-30 21:17 | 52.32630 | -0.28892 | 38231 ft | 455 kts | 343° |
| 2026-04-30 21:17 | 52.35563 | -0.30836 | 38223 ft | 454 kts | 331° |
| 2026-04-30 21:17 | 52.38330 | -0.33307 | 38236 ft | 454 kts | 330° |
| 2026-04-30 21:18 | 52.43848 | -0.38375 | 38240 ft | 455 kts | 330° |
| 2026-04-30 21:18 | 52.49389 | -0.43414 | 38238 ft | 456 kts | 330° |
| 2026-04-30 21:19 | 52.54953 | -0.48414 | 38243 ft | 456 kts | 330° |
| 2026-04-30 21:19 | 52.60539 | -0.53426 | 38237 ft | 457 kts | 330° |
| 2026-04-30 21:20 | 52.66132 | -0.58457 | 38244 ft | 457 kts | 330° |
| 2026-04-30 21:20 | 52.71716 | -0.63498 | 38237 ft | 458 kts | 330° |
| 2026-04-30 21:21 | 52.77299 | -0.68555 | 38237 ft | 458 kts | 330° |
| 2026-04-30 21:22 | 52.85668 | -0.76163 | 38237 ft | 458 kts | 330° |
| 2026-04-30 21:23 | 52.96787 | -0.86324 | 38238 ft | 457 kts | 330° |
| 2026-04-30 21:23 | 53.05121 | -0.93971 | 38234 ft | 457 kts | 330° |
| 2026-04-30 21:24 | 53.10683 | -0.99086 | 38236 ft | 457 kts | 330° |
| 2026-04-30 21:24 | 53.16246 | -1.04218 | 38243 ft | 457 kts | 330° |
| 2026-04-30 21:25 | 53.21834 | -1.09391 | 37769 ft | 464 kts | 329° |
| 2026-04-30 21:25 | 53.24651 | -1.12004 | 37271 ft | 461 kts | 329° |
| 2026-04-30 21:25 | 53.27455 | -1.14608 | 36746 ft | 460 kts | 329° |
| 2026-04-30 21:26 | 53.33004 | -1.19775 | 35898 ft | 453 kts | 329° |
| 2026-04-30 21:26 | 53.35751 | -1.22338 | 35482 ft | 450 kts | 329° |
| 2026-04-30 21:27 | 53.41307 | -1.27000 | 34645 ft | 446 kts | 340° |
| 2026-04-30 21:27 | 53.44295 | -1.28352 | 34157 ft | 446 kts | 350° |
| 2026-04-30 21:27 | 53.47380 | -1.28879 | 33684 ft | 444 kts | 358° |
| 2026-04-30 21:28 | 53.53467 | -1.29454 | 32838 ft | 438 kts | 357° |
| 2026-04-30 21:28 | 53.56489 | -1.29955 | 32427 ft | 436 kts | 349° |
| 2026-04-30 21:28 | 53.62129 | -1.33318 | 31644 ft | 428 kts | 328° |
| 2026-04-30 21:29 | 53.64671 | -1.35896 | 31274 ft | 424 kts | 326° |
| 2026-04-30 21:29 | 53.72163 | -1.43677 | 30099 ft | 418 kts | 327° |
| 2026-04-30 21:30 | 53.77114 | -1.48721 | 29255 ft | 412 kts | 327° |
| 2026-04-30 21:31 | 53.84378 | -1.56144 | 28082 ft | 404 kts | 327° |
| 2026-04-30 21:31 | 53.89157 | -1.61051 | 27310 ft | 399 kts | 327° |
| 2026-04-30 21:32 | 53.93890 | -1.65925 | 26549 ft | 395 kts | 327° |
| 2026-04-30 21:32 | 53.96234 | -1.68343 | 26173 ft | 394 kts | 327° |
| 2026-04-30 21:32 | 53.98570 | -1.70755 | 25795 ft | 392 kts | 326° |
| 2026-04-30 21:32 | 54.00881 | -1.73145 | 25432 ft | 390 kts | 326° |
| 2026-04-30 21:33 | 54.03202 | -1.75547 | 24947 ft | 392 kts | 327° |
| 2026-04-30 21:33 | 54.07897 | -1.80404 | 23740 ft | 403 kts | 327° |
| 2026-04-30 21:33 | 54.10308 | -1.82902 | 23048 ft | 407 kts | 327° |
| 2026-04-30 21:34 | 54.12804 | -1.85199 | 22374 ft | 411 kts | 340° |
| 2026-04-30 21:34 | 54.18432 | -1.85581 | 21189 ft | 409 kts | 12° |
| 2026-04-30 21:34 | 54.21230 | -1.84665 | 20568 ft | 410 kts | 13° |
| 2026-04-30 21:35 | 54.24034 | -1.83708 | 19938 ft | 411 kts | 13° |
| 2026-04-30 21:35 | 54.26843 | -1.82765 | 19324 ft | 411 kts | 12° |
| 2026-04-30 21:35 | 54.29657 | -1.81848 | 18705 ft | 412 kts | 12° |
| 2026-04-30 21:35 | 54.32478 | -1.80949 | 18009 ft | 412 kts | 12° |
| 2026-04-30 21:36 | 54.35295 | -1.80062 | 17352 ft | 411 kts | 12° |
| 2026-04-30 21:36 | 54.38105 | -1.79178 | 16717 ft | 410 kts | 12° |
| 2026-04-30 21:37 | 54.46555 | -1.76506 | 14396 ft | 417 kts | 12° |
| 2026-04-30 21:37 | 54.49420 | -1.75598 | 13471 ft | 420 kts | 12° |
| 2026-04-30 21:37 | 54.52265 | -1.74695 | 12588 ft | 422 kts | 12° |
| 2026-04-30 21:37 | 54.55121 | -1.73788 | 11921 ft | 407 kts | 12° |
| 2026-04-30 21:38 | 54.57837 | -1.72926 | 11414 ft | 388 kts | 12° |
| 2026-04-30 21:38 | 54.60460 | -1.72090 | 10768 ft | 377 kts | 12° |
| 2026-04-30 21:38 | 54.63003 | -1.71278 | 10260 ft | 364 kts | 12° |
| 2026-04-30 21:38 | 54.65447 | -1.70496 | 9868 ft | 349 kts | 12° |
| 2026-04-30 21:39 | 54.67743 | -1.69764 | 9874 ft | 324 kts | 12° |
| 2026-04-30 21:39 | 54.69917 | -1.69591 | 9738 ft | 307 kts | 350° |
| 2026-04-30 21:39 | 54.71880 | -1.70712 | 9639 ft | 289 kts | 332° |
| 2026-04-30 21:39 | 54.73634 | -1.72263 | 9547 ft | 279 kts | 330° |
| 2026-04-30 21:40 | 54.75334 | -1.73833 | 9319 ft | 276 kts | 330° |
| 2026-04-30 21:40 | 54.77027 | -1.75403 | 9041 ft | 276 kts | 330° |
| 2026-04-30 21:40 | 54.78701 | -1.76948 | 8773 ft | 275 kts | 330° |
| 2026-04-30 21:40 | 54.80389 | -1.78499 | 8439 ft | 277 kts | 330° |
| 2026-04-30 21:41 | 54.82145 | -1.80107 | 7664 ft | 292 kts | 330° |
| 2026-04-30 21:41 | 54.83968 | -1.81773 | 6967 ft | 300 kts | 330° |
| 2026-04-30 21:41 | 54.85842 | -1.83481 | 6215 ft | 307 kts | 330° |
| 2026-04-30 21:41 | 54.87748 | -1.85218 | 5596 ft | 307 kts | 330° |
| 2026-04-30 21:42 | 54.89657 | -1.86958 | 4848 ft | 312 kts | 330° |
| 2026-04-30 21:42 | 54.91592 | -1.88723 | 4078 ft | 316 kts | 331° |
| 2026-04-30 21:42 | 54.93541 | -1.90503 | 3330 ft | 317 kts | 331° |
| 2026-04-30 21:42 | 54.94839 | -1.91686 | 2845 ft | 317 kts | 332° |
| 2026-04-30 21:43 | 54.96904 | -1.92751 | 2497 ft | 304 kts | 1° |
| 2026-04-30 21:43 | 54.98828 | -1.91923 | 2487 ft | 272 kts | 36° |
| 2026-04-30 21:43 | 55.00002 | -1.89711 | 2489 ft | 234 kts | 73° |
| 2026-04-30 21:43 | 55.00170 | -1.87121 | 2283 ft | 207 kts | 106° |
| 2026-04-30 21:44 | 55.00049 | -1.84701 | 2036 ft | 196 kts | 95° |
| 2026-04-30 21:44 | 55.00332 | -1.82414 | 1791 ft | 191 kts | 77° |
| 2026-04-30 21:44 | 55.00808 | -1.80299 | 1540 ft | 184 kts | 73° |
| 2026-04-30 21:44 | 55.01322 | -1.78324 | 1311 ft | 172 kts | 70° |
| 2026-04-30 21:45 | 55.01798 | -1.76523 | 1047 ft | 156 kts | 68° |
| 2026-04-30 21:45 | 55.02225 | -1.74916 | 923 ft | 137 kts | 67° |
| 2026-04-30 21:45 | 55.02607 | -1.73457 | 674 ft | 128 kts | 66° |
| 2026-04-30 21:45 | 55.02972 | -1.72079 | 452 ft | 123 kts | 66° |
| 2026-04-30 21:46 | 55.03324 | -1.70759 | 313 ft | 118 kts | 66° |
| 2026-04-30 21:46 | 55.03651 | -1.69520 | 256 ft | 103 kts | 66° |
| 2026-04-30 21:46 | 55.03868 | -1.68701 | 248 ft | 58 kts | 65° |
| 2026-04-30 21:46 | 55.04021 | -1.68330 | 244 ft | 33 kts | 37° |
| 2026-04-30 21:47 | 55.04142 | -1.68338 | 243 ft | 19 kts | 255° |
| 2026-04-30 21:47 | 55.04090 | -1.68541 | 246 ft | 18 kts | 245° |
| 2026-04-30 21:47 | 55.04043 | -1.68739 | 248 ft | 17 kts | 240° |
| 2026-04-30 21:47 | 55.03988 | -1.68924 | 249 ft | 17 kts | 246° |
| 2026-04-30 21:48 | 55.03938 | -1.69119 | 251 ft | 20 kts | 246° |
| 2026-04-30 21:48 | 55.03874 | -1.69365 | 253 ft | 25 kts | 245° |
| 2026-04-30 21:48 | 55.03811 | -1.69630 | 256 ft | 23 kts | 251° |
| 2026-04-30 21:48 | 55.03780 | -1.69904 | 257 ft | 25 kts | 264° |
| 2026-04-30 21:49 | 55.03779 | -1.70265 | 254 ft | 32 kts | 276° |
| 2026-04-30 21:49 | 55.03651 | -1.70444 | 259 ft | 27 kts | 192° |
| 2026-04-30 21:49 | 55.03594 | -1.70707 | 261 ft | 25 kts | 275° |
| 2026-04-30 21:49 | 55.03611 | -1.70879 | 261 ft | 6 kts | 281° |
| 2026-04-30 21:50 | 55.03614 | -1.70930 | 260 ft | 0 kts | 274° |
| 2026-04-30 21:50 | 55.03614 | -1.70931 | 260 ft | 0 kts | 274° |